createdAt,value
2018-05-26T00:00:08.467Z,19.57
2018-05-26T00:02:11.235Z,20.47
2018-05-26T00:04:13.967Z,19.70
2018-05-26T00:06:17.443Z,21.87
2018-05-26T00:08:20.147Z,19.83
2018-05-26T00:10:23.628Z,20.67
2018-05-26T00:12:27.088Z,22.77
2018-05-26T00:14:29.804Z,21.57
2018-05-26T00:16:33.255Z,20.77
2018-05-26T00:18:35.938Z,21.47
2018-05-26T00:20:38.659Z,20.83
2018-05-26T00:22:47.918Z,19.87
2018-05-26T00:24:50.610Z,20.90
2018-05-26T00:26:53.326Z,20.40
2018-05-26T00:28:56.770Z,20.87
2018-05-26T00:30:59.450Z,22.30
2018-05-26T00:33:02.159Z,23.30
2018-05-26T00:35:04.846Z,23.17
2018-05-26T00:37:08.267Z,20.93
2018-05-26T00:39:10.990Z,21.70
2018-05-26T00:41:13.670Z,22.50
2018-05-26T00:43:16.342Z,22.50
2018-05-26T00:45:19.076Z,23.60
2018-05-26T00:47:21.746Z,22.60
2018-05-26T00:49:24.411Z,22.70
2018-05-26T00:51:27.271Z,23.00
2018-05-26T00:53:30.741Z,23.33
2018-05-26T00:55:33.418Z,24.30
2018-05-26T00:57:36.125Z,24.80
2018-05-26T00:59:39.580Z,25.07
2018-05-26T01:01:42.280Z,25.00
2018-05-26T01:03:44.971Z,25.20
2018-05-26T01:05:48.405Z,24.20
2018-05-26T01:07:51.122Z,23.53
2018-05-26T01:09:53.800Z,24.23
2018-05-26T01:11:56.490Z,21.90
2018-05-26T01:13:59.967Z,23.43
2018-05-26T01:16:02.660Z,23.60
2018-05-26T01:18:06.105Z,22.03
2018-05-26T01:20:08.818Z,22.03
2018-05-26T01:22:12.256Z,22.97
2018-05-26T01:24:14.958Z,22.90
2018-05-26T01:26:17.665Z,24.50
2018-05-26T01:28:21.121Z,23.93
2018-05-26T01:30:23.827Z,22.17
2018-05-26T01:32:26.546Z,24.60
2018-05-26T01:34:29.228Z,21.80
2018-05-26T01:36:31.952Z,21.93
2018-05-26T01:38:34.642Z,23.77
2018-05-26T01:40:38.074Z,21.97
2018-05-26T01:42:40.832Z,22.43
2018-05-26T01:44:43.649Z,21.73
2018-05-26T01:46:46.353Z,22.27
2018-05-26T01:48:49.047Z,22.80
2018-05-26T01:50:52.487Z,22.60
2018-05-26T01:52:55.207Z,22.90
2018-05-26T01:54:58.670Z,24.03
2018-05-26T01:57:01.391Z,22.90
2018-05-26T01:59:04.902Z,24.37
2018-05-26T02:01:07.611Z,22.63
2018-05-26T02:03:10.354Z,22.40
2018-05-26T02:05:13.039Z,22.37
2018-05-26T02:07:15.693Z,22.10
2018-05-26T02:09:19.247Z,23.23
2018-05-26T02:11:21.913Z,26.00
2018-05-26T02:13:24.650Z,24.20
2018-05-26T02:15:27.343Z,25.37
2018-05-26T02:17:30.102Z,25.33
2018-05-26T02:19:32.782Z,23.83
2018-05-26T02:21:35.469Z,23.70
2018-05-26T02:23:38.945Z,23.20
2018-05-26T02:25:41.619Z,22.13
2018-05-26T02:27:44.337Z,21.20
2018-05-26T02:29:47.038Z,23.00
2018-05-26T02:31:49.728Z,21.97
2018-05-26T02:33:53.183Z,21.30
2018-05-26T02:35:55.836Z,21.23
2018-05-26T02:37:58.522Z,21.63
2018-05-26T02:40:01.214Z,20.03
2018-05-26T02:42:03.908Z,21.50
2018-05-26T02:44:06.588Z,22.27
2018-05-26T02:46:09.303Z,19.20
2018-05-26T02:48:11.985Z,21.03
2018-05-26T02:50:14.707Z,19.90
2018-05-26T02:52:17.381Z,21.13
2018-05-26T02:54:20.071Z,20.83
2018-05-26T02:56:23.561Z,21.73
2018-05-26T02:58:26.257Z,21.20
2018-05-26T03:00:29.712Z,20.53
2018-05-26T03:02:32.429Z,20.53
2018-05-26T03:04:40.861Z,22.37
2018-05-26T03:06:49.578Z,21.67
2018-05-26T03:08:58.265Z,21.43
2018-05-26T03:11:06.632Z,22.73
2018-05-26T03:13:15.092Z,21.90
2018-05-26T03:15:17.286Z,21.30
2018-05-26T03:30:18.266Z,20.70
2018-05-26T03:32:20.948Z,21.87
2018-05-26T03:34:23.674Z,21.30
2018-05-26T03:36:26.358Z,21.97
2018-05-26T03:38:29.059Z,20.83
2018-05-26T03:40:32.558Z,21.90
2018-05-26T03:42:36.008Z,21.20
2018-05-26T03:44:38.769Z,21.93
2018-05-26T03:46:41.470Z,22.23
2018-05-26T03:48:44.639Z,23.07
2018-05-26T03:50:47.370Z,22.20
2018-05-26T03:52:51.024Z,21.53
2018-05-26T03:57:56.719Z,21.40
2018-05-26T04:00:10.840Z,20.90
2018-05-26T04:02:13.555Z,21.73
2018-05-26T04:04:17.009Z,22.10
2018-05-26T04:06:19.697Z,24.50
2018-05-26T04:08:22.432Z,20.90
2018-05-26T04:10:25.143Z,22.47
2018-05-26T04:12:27.944Z,21.47
2018-05-26T04:14:30.634Z,21.43
2018-05-26T04:16:34.093Z,19.90
2018-05-26T04:18:36.814Z,20.37
2018-05-26T04:20:40.251Z,19.93
2018-05-26T04:22:42.959Z,20.40
2018-05-26T04:24:45.637Z,19.07
2018-05-26T04:26:48.418Z,18.30
2018-05-26T04:28:52.041Z,19.47
2018-05-26T04:30:55.503Z,18.70
2018-05-26T04:32:58.225Z,20.20
2018-05-26T04:35:00.907Z,19.30
2018-05-26T04:37:03.895Z,19.57
2018-05-26T04:39:06.638Z,18.50
2018-05-26T04:41:10.092Z,17.60
2018-05-26T04:43:13.530Z,20.07
2018-05-26T04:45:17.100Z,19.30
2018-05-26T04:47:21.935Z,18.57
2018-05-26T04:49:24.812Z,18.57
2018-05-26T04:51:27.523Z,18.40
2018-05-26T04:53:30.982Z,17.67
2018-05-26T04:55:33.720Z,17.70
2018-05-26T04:57:36.428Z,16.40
2018-05-26T04:59:39.141Z,17.30
2018-05-26T05:01:42.655Z,16.00
2018-05-26T05:03:45.371Z,18.07
2018-05-26T05:05:48.078Z,16.60
2018-05-26T05:07:52.910Z,18.00
2018-05-26T05:09:56.369Z,17.40
2018-05-26T05:11:59.190Z,17.40
2018-05-26T05:14:02.666Z,16.00
2018-05-26T05:16:05.458Z,17.03
2018-05-26T05:18:08.917Z,16.83
2018-05-26T05:20:11.597Z,16.80
2018-05-26T05:22:14.360Z,17.40
2018-05-26T05:24:17.032Z,16.93
2018-05-26T05:26:19.799Z,16.43
2018-05-26T05:28:22.505Z,16.90
2018-05-26T05:30:25.345Z,16.60
2018-05-26T05:32:28.065Z,16.10
2018-05-26T05:34:30.860Z,17.27
2018-05-26T05:36:33.541Z,15.63
2018-05-26T05:38:36.260Z,16.50
2018-05-26T05:40:38.984Z,16.87
2018-05-26T05:42:41.668Z,17.77
2018-05-26T05:44:44.459Z,17.13
2018-05-26T05:46:47.140Z,17.90
2018-05-26T05:48:50.735Z,17.50
2018-05-26T05:50:53.437Z,16.73
2018-05-26T05:52:56.157Z,16.83
2018-05-26T05:54:59.093Z,16.10
2018-05-26T05:57:01.944Z,17.43
2018-05-26T05:59:05.070Z,16.10
2018-05-26T06:01:07.533Z,15.90
2018-05-26T06:03:10.238Z,14.70
2018-05-26T06:05:12.992Z,13.13
2018-05-26T06:07:15.681Z,13.37
2018-05-26T06:09:18.419Z,14.27
2018-05-26T06:11:21.968Z,13.53
2018-05-26T06:13:24.778Z,12.80
2018-05-26T06:15:27.801Z,13.17
2018-05-26T06:17:30.512Z,13.53
2018-05-26T06:19:33.230Z,12.13
2018-05-26T06:21:35.944Z,12.77
2018-05-26T06:23:38.625Z,11.67
2018-05-26T06:25:41.310Z,11.80
2018-05-26T06:27:44.067Z,11.53
2018-05-26T06:29:46.738Z,10.43
2018-05-26T06:31:50.235Z,11.37
2018-05-26T06:33:53.728Z,11.70
2018-05-26T06:35:56.588Z,10.90
2018-05-26T06:38:00.074Z,11.97
2018-05-26T06:40:02.824Z,10.70
2018-05-26T06:42:05.792Z,11.20
2018-05-26T06:44:08.492Z,10.57
2018-05-26T06:46:11.213Z,10.90
2018-05-26T06:48:14.650Z,11.37
2018-05-26T06:50:17.382Z,12.63
2018-05-26T06:52:20.837Z,11.83
2018-05-26T06:54:23.521Z,12.27
2018-05-26T06:56:26.224Z,13.13
2018-05-26T06:58:29.653Z,11.70
2018-05-26T07:00:32.412Z,11.63
2018-05-26T07:02:35.166Z,10.93
2018-05-26T07:04:37.853Z,11.30
2018-05-26T07:06:43.882Z,11.20
2018-05-26T07:08:46.870Z,10.60
2018-05-26T07:10:49.884Z,10.10
2018-05-26T07:12:53.794Z,8.83
2018-05-26T07:14:56.571Z,8.30
2018-05-26T07:16:59.259Z,8.07
2018-05-26T07:19:01.967Z,8.30
2018-05-26T07:21:04.715Z,7.70
2018-05-26T07:23:07.386Z,8.23
2018-05-26T07:25:10.073Z,7.27
2018-05-26T07:27:12.807Z,7.37
2018-05-26T07:29:15.486Z,7.70
2018-05-26T07:31:18.155Z,7.27
2018-05-26T07:33:20.862Z,6.70
2018-05-26T07:35:24.313Z,7.00
2018-05-26T07:37:27.034Z,6.97
2018-05-26T07:39:30.492Z,7.97
2018-05-26T07:41:33.203Z,7.57
2018-05-26T07:43:36.109Z,7.50
2018-05-26T07:45:38.835Z,7.90
2018-05-26T07:47:41.506Z,7.63
2018-05-26T07:49:44.184Z,7.90
2018-05-26T07:51:47.987Z,6.60
2018-05-26T07:53:50.685Z,7.77
2018-05-26T07:55:53.403Z,7.20
2018-05-26T07:57:56.318Z,7.90
2018-05-26T07:59:59.115Z,7.60
2018-05-26T08:02:02.578Z,7.50
2018-05-26T08:04:05.799Z,7.47
2018-05-26T08:06:08.667Z,7.90
2018-05-26T08:08:11.350Z,7.00
2018-05-26T08:10:14.048Z,7.00
2018-05-26T08:12:16.749Z,8.40
2018-05-26T08:14:19.454Z,7.40
2018-05-26T08:16:22.456Z,7.80
2018-05-26T08:18:25.144Z,7.70
2018-05-26T08:20:28.631Z,6.97
2018-05-26T08:22:31.339Z,7.00
2018-05-26T08:24:34.061Z,6.83
2018-05-26T08:26:36.851Z,7.27
2018-05-26T08:28:39.530Z,7.07
2018-05-26T08:30:43.793Z,7.23
2018-05-26T08:35:14.416Z,7.23
2018-05-26T08:37:17.892Z,6.63
2018-05-26T08:39:20.884Z,5.63
2018-05-26T08:41:23.608Z,5.90
2018-05-26T08:43:26.317Z,6.55
2018-05-26T08:45:30.258Z,6.53
2018-05-26T08:47:33.721Z,6.57
2018-05-26T08:49:36.408Z,7.30
2018-05-26T08:51:39.121Z,7.18
2018-05-26T08:53:41.963Z,5.87
2018-05-26T08:55:44.676Z,6.63
2018-05-26T08:57:47.452Z,6.30
2018-05-26T08:59:50.153Z,6.22
2018-05-26T09:01:52.882Z,6.70
2018-05-26T09:03:55.585Z,5.72
2018-05-26T09:05:58.280Z,6.43
2018-05-26T09:08:01.005Z,5.20
2018-05-26T09:10:03.760Z,5.35
2018-05-26T09:12:06.476Z,5.65
2018-05-26T09:14:09.950Z,5.57
2018-05-26T09:16:12.698Z,5.43
2018-05-26T09:18:15.408Z,4.95
2018-05-26T09:20:18.096Z,4.97
2018-05-26T09:22:20.811Z,5.40
2018-05-26T09:24:23.512Z,5.22
2018-05-26T09:26:26.214Z,5.68
2018-05-26T09:28:28.937Z,5.95
2018-05-26T09:30:31.642Z,4.93
2018-05-26T09:32:34.354Z,5.65
2018-05-26T09:34:37.023Z,5.18
2018-05-26T09:36:39.746Z,5.15
2018-05-26T09:38:42.452Z,5.18
2018-05-26T09:40:45.158Z,5.40
2018-05-26T09:42:47.853Z,5.00
2018-05-26T09:44:51.445Z,5.82
2018-05-26T09:46:54.992Z,5.18
2018-05-26T09:48:57.710Z,5.10
2018-05-26T09:51:00.396Z,4.75
2018-05-26T09:53:03.921Z,4.83
2018-05-26T09:55:06.629Z,5.80
2018-05-26T09:57:10.110Z,5.25
2018-05-26T09:59:19.438Z,4.97
2018-05-26T10:01:22.181Z,4.72
2018-05-26T10:03:25.670Z,4.20
2018-05-26T10:05:29.000Z,3.97
2018-05-26T10:07:31.759Z,5.23
2018-05-26T10:09:34.453Z,5.00
2018-05-26T10:11:37.250Z,4.40
2018-05-26T10:13:40.021Z,4.57
2018-05-26T10:15:42.702Z,3.90
2018-05-26T10:17:45.540Z,4.30
2018-05-26T10:19:49.837Z,4.90
2018-05-26T10:21:53.290Z,5.05
2018-05-26T10:23:56.018Z,4.60
2018-05-26T10:25:59.463Z,4.22
2018-05-26T10:28:02.193Z,4.05
2018-05-26T10:30:05.730Z,4.43
2018-05-26T10:32:08.405Z,3.80
2018-05-26T10:34:11.112Z,4.37
2018-05-26T10:36:14.776Z,4.10
2018-05-26T10:38:17.435Z,4.80
2018-05-26T10:40:20.169Z,4.57
2018-05-26T10:42:22.852Z,4.30
2018-05-26T10:44:25.536Z,4.03
2018-05-26T10:46:29.037Z,4.07
2018-05-26T10:48:32.519Z,3.83
2018-05-26T10:50:35.224Z,4.78
2018-05-26T10:52:38.719Z,3.95
2018-05-26T10:54:42.204Z,4.43
2018-05-26T10:56:45.975Z,4.68
2018-05-26T10:58:48.870Z,4.18
2018-05-26T11:00:55.140Z,4.20
2018-05-26T11:02:57.843Z,4.97
2018-05-26T11:05:01.053Z,4.85
2018-05-26T11:07:04.667Z,4.30
2018-05-26T11:09:08.260Z,4.25
2018-05-26T11:11:10.968Z,4.00
2018-05-26T11:13:13.658Z,3.58
2018-05-26T11:15:16.357Z,3.25
2018-05-26T11:17:19.040Z,3.95
2018-05-26T11:19:21.775Z,4.32
2018-05-26T11:21:24.513Z,4.03
2018-05-26T11:23:27.235Z,3.50
2018-05-26T11:25:30.018Z,4.27
2018-05-26T11:27:33.583Z,3.93
2018-05-26T11:29:37.061Z,3.33
2018-05-26T11:31:39.786Z,3.57
2018-05-26T11:33:42.539Z,3.70
2018-05-26T11:35:45.442Z,3.73
2018-05-26T11:37:48.134Z,3.80
2018-05-26T11:39:51.736Z,3.97
2018-05-26T11:41:55.178Z,3.50
2018-05-26T11:43:57.888Z,3.67
2018-05-26T11:46:00.619Z,3.50
2018-05-26T11:48:03.604Z,3.73
2018-05-26T11:50:06.474Z,3.70
2018-05-26T11:52:09.206Z,3.10
2018-05-26T11:54:11.897Z,3.47
2018-05-26T11:56:15.321Z,3.53
2018-05-26T11:58:17.998Z,3.30
2018-05-26T12:00:20.691Z,3.20
2018-05-26T12:02:23.384Z,3.30
2018-05-26T12:04:26.090Z,3.50
2018-05-26T12:06:28.768Z,2.83
2018-05-26T12:08:32.237Z,3.13
2018-05-26T12:10:34.968Z,3.20
2018-05-26T12:12:37.799Z,3.43
2018-05-26T12:14:40.498Z,3.40
2018-05-26T12:16:43.213Z,3.40
2018-05-26T12:18:45.969Z,3.43
2018-05-26T12:20:48.681Z,3.60
2018-05-26T12:22:51.436Z,3.20
2018-05-26T12:24:54.136Z,3.20
2018-05-26T12:26:56.876Z,3.20
2018-05-26T12:28:59.548Z,3.20
2018-05-26T12:31:03.034Z,3.00
2018-05-26T12:33:06.716Z,3.03
2018-05-26T12:35:09.427Z,3.40
2018-05-26T12:37:12.905Z,3.33
2018-05-26T12:39:15.592Z,3.20
2018-05-26T12:41:19.036Z,3.60
2018-05-26T12:43:21.802Z,3.37
2018-05-26T12:45:25.841Z,3.43
2018-05-26T12:47:28.565Z,3.50
2018-05-26T12:49:31.267Z,3.17
2018-05-26T12:51:33.958Z,3.03
2018-05-26T12:53:36.726Z,3.13
2018-05-26T12:55:39.430Z,2.70
2018-05-26T12:57:42.150Z,2.80
2018-05-26T12:59:49.301Z,3.07
2018-05-26T13:01:52.044Z,3.40
2018-05-26T13:03:54.801Z,3.10
2018-05-26T13:05:57.490Z,3.63
2018-05-26T13:08:00.227Z,3.60
2018-05-26T13:10:03.709Z,3.33
2018-05-26T13:12:06.418Z,3.23
2018-05-26T13:14:09.113Z,3.50
2018-05-26T13:16:11.836Z,3.27
2018-05-26T13:18:14.514Z,3.13
2018-05-26T13:20:17.177Z,3.00
2018-05-26T13:22:19.891Z,3.27
2018-05-26T13:24:23.350Z,3.30
2018-05-26T13:26:26.060Z,3.30
2018-05-26T13:28:29.517Z,3.20
2018-05-26T13:30:32.218Z,3.27
2018-05-26T13:32:35.675Z,2.93
2018-05-26T13:34:38.379Z,3.00
2018-05-26T13:36:41.080Z,3.23
2018-05-26T13:38:44.521Z,2.97
2018-05-26T13:40:47.237Z,3.63
2018-05-26T13:42:53.313Z,3.50
2018-05-26T13:44:56.000Z,3.30
2018-05-26T13:46:58.716Z,3.50
2018-05-26T13:49:01.414Z,3.70
2018-05-26T13:51:04.208Z,3.10
2018-05-26T13:53:06.899Z,3.70
2018-05-26T13:55:09.651Z,3.30
2018-05-26T13:57:12.305Z,3.00
2018-05-26T13:59:14.996Z,2.90
2018-05-26T14:01:17.706Z,3.67
2018-05-26T14:03:21.139Z,3.20
2018-05-26T14:05:23.874Z,3.43
2018-05-26T14:07:26.564Z,3.20
2018-05-26T14:09:29.253Z,3.40
2018-05-26T14:11:31.936Z,3.07
2018-05-26T14:13:34.603Z,3.23
2018-05-26T14:15:37.315Z,3.17
2018-05-26T14:17:40.000Z,3.43
2018-05-26T14:19:42.714Z,3.40
2018-05-26T14:21:46.161Z,3.57
2018-05-26T14:23:48.866Z,3.40
2018-05-26T14:25:52.467Z,3.13
2018-05-26T14:27:55.131Z,3.60
2018-05-26T14:29:57.861Z,3.60
2018-05-26T14:32:00.565Z,4.00
2018-05-26T14:34:03.286Z,3.27
2018-05-26T14:36:06.718Z,3.30
2018-05-26T14:38:09.422Z,3.30
2018-05-26T14:40:12.147Z,3.40
2018-05-26T14:42:14.841Z,3.60
2018-05-26T14:44:17.572Z,3.50
2018-05-26T14:46:20.297Z,3.43
2018-05-26T14:48:23.004Z,3.00
2018-05-26T14:50:25.739Z,3.33
2018-05-26T14:52:28.427Z,3.27
2018-05-26T14:54:31.131Z,3.60
2018-05-26T14:56:33.805Z,3.37
2018-05-26T14:58:36.509Z,3.20
2018-05-26T15:00:39.991Z,3.10
2018-05-26T15:02:42.668Z,3.40
2018-05-26T15:04:45.377Z,3.33
2018-05-26T15:06:48.821Z,3.50
2018-05-26T15:08:51.570Z,3.40
2018-05-26T15:10:54.292Z,3.80
2018-05-26T15:12:57.095Z,3.20
2018-05-26T15:14:59.731Z,3.43
2018-05-26T15:17:02.441Z,3.47
2018-05-26T15:19:05.147Z,3.23
2018-05-26T15:21:07.841Z,3.60
2018-05-26T15:23:10.574Z,4.47
2018-05-26T15:25:14.047Z,3.50
2018-05-26T15:27:16.767Z,3.83
2018-05-26T15:29:19.465Z,3.70
2018-05-26T15:31:22.209Z,3.10
2018-05-26T15:33:25.675Z,3.20
2018-05-26T15:35:28.349Z,3.83
2018-05-26T15:37:31.038Z,3.63
2018-05-26T15:39:33.720Z,3.20
2018-05-26T15:41:36.405Z,3.27
2018-05-26T15:43:39.898Z,3.27
2018-05-26T15:45:43.359Z,3.63
2018-05-26T15:47:46.083Z,3.57
2018-05-26T15:49:49.538Z,5.20
2018-05-26T15:51:52.264Z,8.40
2018-05-26T15:53:54.949Z,7.47
2018-05-26T15:55:57.645Z,5.93
2018-05-26T15:58:00.364Z,4.50
2018-05-26T16:00:03.079Z,4.40
2018-05-26T16:02:05.763Z,3.50
2018-05-26T16:04:08.457Z,3.90
2018-05-26T16:06:11.949Z,3.90
2018-05-26T16:08:14.636Z,3.37
2018-05-26T16:10:21.825Z,3.93
2018-05-26T16:12:24.518Z,3.50
2018-05-26T16:14:27.193Z,3.90
2018-05-26T16:16:29.888Z,3.90
2018-05-26T16:18:33.402Z,3.50
2018-05-26T16:20:36.075Z,3.67
2018-05-26T16:22:39.532Z,4.03
2018-05-26T16:24:42.215Z,3.87
2018-05-26T16:26:44.938Z,3.60
2018-05-26T16:28:47.621Z,4.50
2018-05-26T16:30:50.331Z,3.67
2018-05-26T16:32:53.026Z,3.60
2018-05-26T16:34:55.708Z,3.97
2018-05-26T16:36:58.410Z,4.10
2018-05-26T16:39:01.130Z,3.50
2018-05-26T16:41:03.834Z,3.90
2018-05-26T16:43:06.508Z,3.63
2018-05-26T16:45:09.239Z,3.67
2018-05-26T16:47:11.936Z,3.60
2018-05-26T16:49:14.625Z,4.13
2018-05-26T16:51:17.350Z,3.40
2018-05-26T16:53:20.029Z,3.70
2018-05-26T16:55:22.742Z,3.40
2018-05-26T16:57:25.440Z,3.73
2018-05-26T16:59:28.110Z,3.63
2018-05-26T17:01:30.833Z,3.60
2018-05-26T17:03:33.520Z,3.57
2018-05-26T17:05:36.384Z,4.30
2018-05-26T17:07:39.814Z,4.20
2018-05-26T17:09:42.536Z,3.90
2018-05-26T17:11:45.217Z,4.30
2018-05-26T17:13:48.675Z,3.87
2018-05-26T17:15:51.459Z,3.70
2018-05-26T17:17:54.145Z,3.57
2018-05-26T17:19:56.854Z,4.23
2018-05-26T17:22:00.293Z,3.90
2018-05-26T17:24:03.024Z,4.17
2018-05-26T17:26:06.494Z,4.17
2018-05-26T17:28:09.179Z,3.40
2018-05-26T17:30:11.876Z,4.00
2018-05-26T17:32:15.310Z,3.20
2018-05-26T17:34:18.091Z,3.97
2018-05-26T17:36:20.784Z,4.03
2018-05-26T17:38:23.484Z,4.40
2018-05-26T17:40:26.174Z,4.17
2018-05-26T17:42:29.832Z,3.67
2018-05-26T17:44:32.544Z,4.13
2018-05-26T17:46:36.014Z,4.07
2018-05-26T17:48:49.260Z,4.30
2018-05-26T17:50:51.941Z,4.37
2018-05-26T17:52:55.422Z,3.83
2018-05-26T17:54:58.120Z,4.50
2018-05-26T17:57:01.699Z,3.70
2018-05-26T17:59:06.325Z,3.77
2018-05-26T18:01:09.016Z,4.03
2018-05-26T18:03:12.551Z,4.27
2018-05-26T18:05:15.223Z,3.80
2018-05-26T18:07:18.031Z,4.20
2018-05-26T18:09:20.755Z,3.77
2018-05-26T18:11:24.296Z,3.93
2018-05-26T18:13:27.029Z,3.90
2018-05-26T18:15:30.492Z,4.43
2018-05-26T18:17:33.209Z,4.90
2018-05-26T18:19:35.942Z,5.97
2018-05-26T18:21:38.664Z,5.57
2018-05-26T18:23:41.389Z,5.30
2018-05-26T18:25:44.142Z,5.50
2018-05-26T18:27:46.854Z,5.20
2018-05-26T18:29:49.589Z,5.97
2018-05-26T18:31:52.553Z,7.30
2018-05-26T18:33:56.018Z,4.70
2018-05-26T18:35:58.690Z,5.63
2018-05-26T18:38:01.400Z,6.53
2018-05-26T18:40:04.871Z,6.70
2018-05-26T18:42:07.606Z,6.13
2018-05-26T18:44:10.309Z,6.10
2018-05-26T18:46:13.002Z,6.10
2018-05-26T18:48:15.723Z,5.90
2018-05-26T18:50:18.424Z,5.50
2018-05-26T18:52:21.164Z,6.83
2018-05-26T18:54:23.887Z,6.90
2018-05-26T18:56:26.616Z,7.30
2018-05-26T18:58:29.723Z,5.90
2018-05-26T19:00:32.923Z,6.10
2018-05-26T19:02:35.750Z,6.80
2018-05-26T19:04:39.306Z,8.03
2018-05-26T19:06:42.034Z,6.87
2018-05-26T19:08:45.502Z,5.90
2018-05-26T19:10:48.194Z,5.23
2018-05-26T19:12:51.702Z,6.07
2018-05-26T19:14:55.181Z,5.50
2018-05-26T19:16:57.922Z,5.07
2018-05-26T19:19:00.625Z,5.70
2018-05-26T19:21:03.373Z,5.67
2018-05-26T19:23:06.091Z,5.17
2018-05-26T19:25:09.559Z,5.03
2018-05-26T19:27:12.280Z,4.63
2018-05-26T19:29:15.742Z,5.03
2018-05-26T19:31:18.491Z,5.40
2018-05-26T19:33:21.978Z,4.87
2018-05-26T19:35:24.813Z,5.47
2018-05-26T19:37:27.574Z,5.60
2018-05-26T19:39:30.287Z,5.30
2018-05-26T19:41:33.026Z,5.50
2018-05-26T19:43:35.734Z,5.20
2018-05-26T19:45:39.204Z,5.10
2018-05-26T19:47:41.917Z,5.33
2018-05-26T19:49:44.616Z,5.03
2018-05-26T19:51:47.343Z,4.90
2018-05-26T19:53:50.055Z,5.47
2018-05-26T19:55:52.776Z,6.17
2018-05-26T19:57:55.555Z,5.47
2018-05-26T20:00:02.768Z,5.40
2018-05-26T20:02:06.343Z,5.30
2018-05-26T20:04:09.184Z,5.33
2018-05-26T20:06:29.797Z,5.10
2018-05-26T20:08:32.509Z,5.43
2018-05-26T20:10:38.698Z,5.50
2018-05-26T20:12:42.219Z,5.93
2018-05-26T20:14:45.024Z,5.60
2018-05-26T20:16:47.909Z,5.47
2018-05-26T20:18:50.622Z,5.50
2018-05-26T20:20:54.144Z,5.70
2018-05-26T20:22:56.867Z,6.30
2018-05-26T20:24:59.610Z,6.10
2018-05-26T20:27:02.356Z,5.77
2018-05-26T20:29:05.957Z,5.80
2018-05-26T20:31:08.662Z,6.10
2018-05-26T20:33:13.891Z,5.87
2018-05-26T20:35:16.588Z,5.90
2018-05-26T20:37:19.306Z,5.50
2018-05-26T20:39:22.813Z,6.40
2018-05-26T20:41:26.246Z,6.67
2018-05-26T20:43:29.055Z,6.93
2018-05-26T20:45:31.723Z,6.10
2018-05-26T20:47:35.338Z,6.40
2018-05-26T20:49:38.076Z,6.87
2018-05-26T20:51:40.780Z,6.50
2018-05-26T20:53:43.465Z,6.13
2018-05-26T20:55:46.162Z,6.83
2018-05-26T20:57:49.661Z,6.60
2018-05-26T20:59:53.211Z,6.60
2018-05-26T21:01:55.934Z,6.53
2018-05-26T21:03:59.558Z,6.33
2018-05-26T21:06:02.279Z,6.80
2018-05-26T21:08:05.140Z,6.40
2018-05-26T21:10:07.869Z,6.90
2018-05-26T21:12:10.613Z,6.43
2018-05-26T21:14:13.343Z,5.90
2018-05-26T21:16:16.037Z,5.90
2018-05-26T21:18:18.761Z,6.17
2018-05-26T21:20:21.512Z,6.10
2018-05-26T21:22:24.225Z,6.70
2018-05-26T21:24:27.912Z,7.10
2018-05-26T21:26:30.608Z,6.97
2018-05-26T21:28:34.416Z,7.10
2018-05-26T21:30:37.141Z,6.13
2018-05-26T21:32:39.866Z,7.37
2018-05-26T21:34:43.308Z,6.70
2018-05-26T21:36:45.995Z,7.20
2018-05-26T21:38:48.735Z,7.23
2018-05-26T21:40:52.470Z,6.43
2018-05-26T21:42:55.285Z,6.57
2018-05-26T21:44:58.041Z,6.57
2018-05-26T21:47:00.898Z,6.20
2018-05-26T21:49:03.713Z,7.53
2018-05-26T21:51:06.443Z,6.13
2018-05-26T21:53:09.197Z,6.47
2018-05-26T21:55:12.653Z,6.97
2018-05-26T21:57:15.426Z,6.67
2018-05-26T21:59:18.112Z,6.20
2018-05-26T22:01:20.850Z,6.87
2018-05-26T22:03:24.485Z,6.87
2018-05-26T22:05:28.238Z,6.70
2018-05-26T22:07:30.977Z,6.90
2018-05-26T22:09:33.670Z,6.33
2018-05-26T22:11:37.208Z,6.43
2018-05-26T22:13:39.947Z,7.10
2018-05-26T22:15:44.525Z,7.10
2018-05-26T22:17:47.220Z,7.07
2018-05-26T22:19:49.927Z,7.30
2018-05-26T22:21:53.396Z,6.80
2018-05-26T22:23:56.090Z,6.83
2018-05-26T22:25:58.763Z,7.07
2018-05-26T22:28:02.238Z,7.63
2018-05-26T22:30:04.988Z,7.40
2018-05-26T22:32:07.692Z,7.50
2018-05-26T22:34:10.417Z,7.00
2018-05-26T22:36:13.108Z,7.80
2018-05-26T22:38:15.825Z,7.40
2018-05-26T22:40:18.567Z,7.47
2018-05-26T22:42:21.267Z,7.30
2018-05-26T22:44:23.964Z,7.33
2018-05-26T22:46:26.653Z,7.57
2018-05-26T22:48:30.146Z,8.27
2018-05-26T22:50:32.889Z,7.07
2018-05-26T22:52:35.573Z,7.90
2018-05-26T22:54:38.299Z,7.70
2018-05-26T22:56:41.051Z,7.17
2018-05-26T22:58:43.798Z,7.70
2018-05-26T23:00:46.503Z,8.13
2018-05-26T23:02:49.222Z,8.10
2018-05-26T23:04:51.958Z,8.33
2018-05-26T23:06:54.683Z,9.00
2018-05-26T23:08:57.383Z,8.70
2018-05-26T23:11:00.092Z,8.03
2018-05-26T23:13:02.770Z,7.73
2018-05-26T23:15:05.455Z,8.47
2018-05-26T23:17:08.914Z,8.47
2018-05-26T23:19:11.687Z,7.77
2018-05-26T23:21:14.396Z,8.63
2018-05-26T23:23:17.129Z,8.17
2018-05-26T23:25:19.836Z,8.53
2018-05-26T23:27:22.497Z,8.60
2018-05-26T23:29:25.190Z,8.13
2018-05-26T23:31:28.075Z,8.47
2018-05-26T23:33:30.806Z,8.60
2018-05-26T23:35:33.520Z,8.67
2018-05-26T23:37:37.148Z,8.73
2018-05-26T23:39:40.604Z,8.80
2018-05-26T23:41:43.288Z,8.77
2018-05-26T23:43:45.976Z,8.83
2018-05-26T23:45:48.853Z,8.30
2018-05-26T23:47:51.538Z,8.80
2018-05-26T23:49:54.225Z,9.53
2018-05-26T23:51:56.986Z,9.73
2018-05-26T23:53:59.651Z,9.67
2018-05-26T23:56:02.397Z,9.10
2018-05-26T23:58:05.136Z,10.40
